Time;durP1;ratioP1;P1;durP2;ratioP2;P2;SDS_P1;SDS_P2;PMS_P1;PMS_P2;Temp;Humidity;BMP_temperature;BMP_pressure;BME280_temperature;BME280_humidity;BME280_pressure;Samples;Min_cycle;Max_cycle;Signal;HPM_P1;HPM_P2
2023/12/31 00:00:32;;;;;;;3.45;1.05;;;8.60;99.90;;;;;;5011622;28;20360;-61
2023/12/31 00:02:58;;;;;;;2.22;1.55;;;8.70;99.90;;;;;;5006773;28;20042;-60
2023/12/31 00:05:23;;;;;;;3.05;1.38;;;8.70;99.90;;;;;;5014260;28;20104;-62
2023/12/31 00:07:49;;;;;;;2.60;1.97;;;8.70;99.90;;;;;;5011295;28;20034;-61
2023/12/31 00:10:14;;;;;;;4.97;1.30;;;8.80;99.90;;;;;;5010217;28;20498;-62
2023/12/31 00:12:40;;;;;;;2.70;1.23;;;8.70;99.90;;;;;;5011198;28;20041;-61
2023/12/31 00:15:06;;;;;;;2.53;1.60;;;8.70;99.90;;;;;;5017764;28;20280;-61
2023/12/31 00:17:31;;;;;;;1.52;1.42;;;8.70;99.90;;;;;;5010927;28;20486;-61
2023/12/31 00:19:57;;;;;;;5.38;1.38;;;8.70;99.90;;;;;;5010022;28;20069;-60
2023/12/31 00:22:22;;;;;;;4.80;1.50;;;8.70;99.90;;;;;;5010683;28;20128;-61
2023/12/31 00:24:54;;;;;;;4.53;1.57;;;8.60;99.90;;;;;;5009856;28;20276;-61
2023/12/31 00:27:19;;;;;;;3.42;1.58;;;8.60;99.90;;;;;;5009055;28;20553;-62
2023/12/31 00:29:45;;;;;;;4.68;1.70;;;8.60;99.90;;;;;;5009884;28;20418;-60
2023/12/31 00:32:11;;;;;;;2.72;1.45;;;8.60;99.90;;;;;;5009864;28;20037;-62
2023/12/31 00:34:37;;;;;;;2.35;1.30;;;8.60;99.90;;;;;;5010637;28;20383;-61
2023/12/31 00:37:03;;;;;;;2.67;1.50;;;8.60;99.90;;;;;;5013302;28;20037;-60
2023/12/31 00:39:29;;;;;;;5.70;1.40;;;8.50;99.90;;;;;;5013201;28;20108;-61
2023/12/31 00:41:55;;;;;;;3.13;1.48;;;8.50;99.90;;;;;;5012632;28;20117;-61
2023/12/31 00:44:20;;;;;;;1.80;1.27;;;8.50;99.90;;;;;;5010434;28;20088;-61
2023/12/31 00:46:46;;;;;;;2.00;1.07;;;8.50;99.90;;;;;;5009792;28;20034;-62
2023/12/31 00:49:11;;;;;;;3.80;1.40;;;8.60;99.90;;;;;;5008970;28;20046;-62
2023/12/31 00:51:37;;;;;;;2.30;1.40;;;8.60;99.90;;;;;;5009812;28;20414;-62
2023/12/31 00:54:03;;;;;;;3.13;1.45;;;8.60;99.90;;;;;;5037709;28;20077;-60
2023/12/31 00:56:28;;;;;;;4.33;1.50;;;8.70;99.90;;;;;;5008395;28;20037;-62
2023/12/31 00:58:54;;;;;;;3.23;1.37;;;8.70;99.90;;;;;;5008929;28;20037;-61
2023/12/31 01:01:20;;;;;;;2.17;1.20;;;8.80;99.90;;;;;;5009715;28;20037;-61
2023/12/31 01:03:45;;;;;;;2.80;1.60;;;8.80;99.90;;;;;;5008849;28;20095;-60
2023/12/31 01:06:11;;;;;;;3.47;1.60;;;8.80;99.90;;;;;;5009651;28;20096;-62
2023/12/31 01:08:37;;;;;;;2.17;1.13;;;8.80;99.90;;;;;;5008855;28;20117;-62
2023/12/31 01:11:02;;;;;;;5.33;1.70;;;8.80;99.90;;;;;;5009156;28;20042;-61
2023/12/31 01:13:29;;;;;;;5.40;1.20;;;8.80;99.90;;;;;;5009325;28;20034;-60
2023/12/31 01:15:54;;;;;;;1.80;1.13;;;8.80;99.90;;;;;;5009115;28;20099;-60
2023/12/31 01:18:20;;;;;;;1.20;0.93;;;8.80;99.90;;;;;;5008926;28;20038;-61
2023/12/31 01:20:46;;;;;;;2.83;1.10;;;8.80;99.90;;;;;;5008497;28;20442;-60
2023/12/31 01:23:11;;;;;;;4.07;1.60;;;8.80;99.90;;;;;;5008728;28;20277;-61
2023/12/31 01:25:37;;;;;;;2.47;1.33;;;8.70;99.90;;;;;;5007563;28;20077;-61
2023/12/31 01:28:03;;;;;;;2.33;1.30;;;8.70;99.90;;;;;;5007970;28;20283;-61
2023/12/31 01:30:29;;;;;;;3.53;1.23;;;8.60;99.90;;;;;;5008833;28;20092;-61
2023/12/31 01:32:56;;;;;;;3.13;1.33;;;8.70;99.90;;;;;;5008215;28;20046;-61
2023/12/31 01:35:21;;;;;;;5.88;1.00;;;8.60;99.90;;;;;;5011506;28;20077;-62
2023/12/31 01:37:47;;;;;;;3.08;0.90;;;8.60;99.90;;;;;;5009828;28;20069;-60
2023/12/31 01:40:13;;;;;;;1.80;1.20;;;8.50;99.90;;;;;;5008449;28;20038;-61
2023/12/31 01:42:38;;;;;;;1.80;0.95;;;8.50;99.90;;;;;;5008257;28;20040;-61
2023/12/31 01:45:05;;;;;;;2.53;0.82;;;8.50;99.90;;;;;;5007863;28;20041;-62
2023/12/31 01:47:32;;;;;;;3.00;1.10;;;8.50;99.90;;;;;;5008585;28;20033;-62
2023/12/31 01:49:58;;;;;;;2.92;0.95;;;8.50;99.90;;;;;;5007289;28;20135;-61
2023/12/31 01:52:25;;;;;;;2.33;0.60;;;8.40;99.90;;;;;;5007868;28;20046;-61
2023/12/31 01:54:52;;;;;;;1.20;0.80;;;8.50;99.90;;;;;;5006763;28;20045;-61
2023/12/31 01:57:22;;;;;;;1.63;1.02;;;8.50;99.90;;;;;;5008228;28;20108;-62
2023/12/31 01:59:48;;;;;;;1.13;0.80;;;8.60;99.90;;;;;;5007556;28;20045;-62
2023/12/31 02:02:13;;;;;;;1.58;0.73;;;8.60;99.90;;;;;;5008593;28;20034;-61
2023/12/31 02:04:39;;;;;;;1.07;0.67;;;8.60;99.90;;;;;;5006578;28;20030;-61
2023/12/31 02:07:05;;;;;;;2.57;0.73;;;8.70;99.90;;;;;;5008744;28;20311;-61
2023/12/31 02:09:30;;;;;;;1.57;0.60;;;8.80;99.90;;;;;;5007944;28;20034;-63
2023/12/31 02:11:57;;;;;;;0.73;0.40;;;8.80;99.90;;;;;;5008361;28;20351;-62
2023/12/31 02:14:23;;;;;;;2.00;0.88;;;8.90;99.90;;;;;;5008498;28;20141;-62
2023/12/31 02:16:49;;;;;;;3.40;0.70;;;8.90;99.90;;;;;;5008426;28;20112;-60
2023/12/31 02:19:14;;;;;;;1.00;0.50;;;8.90;99.90;;;;;;5007726;28;20812;-62
2023/12/31 02:21:40;;;;;;;1.00;0.60;;;8.90;99.90;;;;;;5007694;28;20041;-62
2023/12/31 02:24:08;;;;;;;3.47;0.60;;;8.90;99.90;;;;;;5007466;28;20045;-62
2023/12/31 02:26:35;;;;;;;3.00;0.50;;;8.90;99.90;;;;;;5007736;28;20502;-62
2023/12/31 02:29:00;;;;;;;1.80;0.45;;;8.90;99.90;;;;;;5007368;28;20050;-62
2023/12/31 02:31:26;;;;;;;4.13;1.15;;;8.90;99.90;;;;;;5007891;28;20418;-62
2023/12/31 02:33:52;;;;;;;0.67;0.60;;;8.80;99.90;;;;;;5008419;28;20069;-60
2023/12/31 02:36:17;;;;;;;3.10;0.77;;;8.80;99.90;;;;;;5007268;28;20115;-60
2023/12/31 02:38:43;;;;;;;3.50;0.50;;;8.60;99.90;;;;;;5006276;28;20037;-61
2023/12/31 02:41:08;;;;;;;1.50;0.77;;;8.50;99.90;;;;;;5008317;28;20042;-62
2023/12/31 02:43:34;;;;;;;3.37;0.80;;;8.50;99.90;;;;;;5008518;28;20485;-61
2023/12/31 02:45:59;;;;;;;2.00;0.57;;;8.40;99.90;;;;;;5007255;28;20276;-62
2023/12/31 02:48:25;;;;;;;2.13;1.07;;;8.30;99.90;;;;;;5007424;28;20076;-62
2023/12/31 02:50:51;;;;;;;0.80;0.70;;;8.30;99.90;;;;;;5006689;28;20507;-62
2023/12/31 02:53:16;;;;;;;2.20;0.77;;;8.30;99.90;;;;;;5007449;28;20091;-62
2023/12/31 02:55:42;;;;;;;6.03;1.00;;;8.30;99.90;;;;;;5009209;28;20121;-61
2023/12/31 02:58:07;;;;;;;2.57;0.77;;;8.30;99.90;;;;;;5011484;28;20044;-61
2023/12/31 03:00:33;;;;;;;1.17;0.70;;;8.20;99.90;;;;;;5011666;28;20084;-61
2023/12/31 03:02:59;;;;;;;4.20;0.90;;;8.20;99.90;;;;;;5011227;28;20862;-61
2023/12/31 03:05:24;;;;;;;1.40;0.83;;;8.20;99.90;;;;;;5011622;28;20664;-62
2023/12/31 03:07:50;;;;;;;2.40;0.50;;;8.20;99.90;;;;;;5011224;28;20343;-59
2023/12/31 03:10:16;;;;;;;4.10;0.90;;;8.10;99.90;;;;;;5011331;28;20044;-61
2023/12/31 03:12:41;;;;;;;2.03;0.80;;;8.10;99.90;;;;;;5011711;28;20038;-61
2023/12/31 03:15:09;;;;;;;1.23;0.80;;;8.10;99.90;;;;;;5011410;28;20033;-62
2023/12/31 03:17:34;;;;;;;2.05;0.70;;;8.00;99.90;;;;;;5010233;28;20380;-61
2023/12/31 03:20:00;;;;;;;4.33;1.20;;;8.00;99.90;;;;;;5010363;28;20046;-61
2023/12/31 03:22:26;;;;;;;5.50;0.83;;;8.00;99.90;;;;;;5012464;28;20037;-62
2023/12/31 03:24:51;;;;;;;5.20;1.17;;;7.90;99.90;;;;;;5011845;28;20119;-61
2023/12/31 03:27:17;;;;;;;3.13;0.93;;;7.90;99.90;;;;;;5012909;28;20057;-60
2023/12/31 03:29:42;;;;;;;1.83;0.73;;;7.80;99.90;;;;;;5010829;28;20034;-60
2023/12/31 03:32:09;;;;;;;2.60;0.67;;;7.80;99.90;;;;;;5010559;28;20099;-63
2023/12/31 03:34:35;;;;;;;1.50;0.98;;;7.80;99.90;;;;;;5010245;28;20581;-60
2023/12/31 03:37:00;;;;;;;1.67;0.80;;;7.70;99.90;;;;;;5010870;28;20080;-60
2023/12/31 03:39:26;;;;;;;2.80;1.20;;;7.70;99.90;;;;;;5010734;28;20129;-61
2023/12/31 03:41:51;;;;;;;1.63;1.17;;;7.70;99.90;;;;;;5012189;28;20419;-62
2023/12/31 03:44:17;;;;;;;1.00;0.83;;;7.60;99.90;;;;;;5011273;28;20068;-61
2023/12/31 03:46:44;;;;;;;2.43;0.93;;;7.50;99.90;;;;;;5010993;28;20292;-61
2023/12/31 03:49:09;;;;;;;1.30;1.10;;;7.50;99.90;;;;;;5010877;28;20529;-61
2023/12/31 03:51:35;;;;;;;3.13;1.37;;;7.50;99.90;;;;;;5010601;28;20046;-61
2023/12/31 03:54:00;;;;;;;3.07;0.90;;;7.50;99.90;;;;;;5009862;28;20518;-60
2023/12/31 03:56:26;;;;;;;3.63;1.53;;;7.50;99.90;;;;;;5010048;28;20045;-61
2023/12/31 03:58:52;;;;;;;3.13;1.23;;;7.50;99.90;;;;;;5009603;28;20276;-61
2023/12/31 04:01:18;;;;;;;1.37;1.20;;;7.50;99.90;;;;;;5010317;28;20026;-63
2023/12/31 04:03:44;;;;;;;1.83;1.15;;;7.50;99.90;;;;;;5009475;28;20347;-60
2023/12/31 04:06:10;;;;;;;3.92;1.10;;;7.50;99.90;;;;;;5010277;28;20097;-61
2023/12/31 04:08:35;;;;;;;1.42;1.30;;;7.60;99.90;;;;;;5009477;28;20038;-60
2023/12/31 04:11:01;;;;;;;3.63;1.30;;;7.60;99.90;;;;;;5010191;28;20402;-61
2023/12/31 04:13:28;;;;;;;1.53;1.10;;;7.60;99.90;;;;;;5009833;28;20029;-61
2023/12/31 04:15:54;;;;;;;3.85;1.15;;;7.60;99.90;;;;;;5009825;28;20041;-61
2023/12/31 04:18:20;;;;;;;2.13;1.33;;;7.60;99.90;;;;;;5020934;28;20450;-61
2023/12/31 04:20:45;;;;;;;1.83;1.50;;;7.70;99.90;;;;;;5010401;28;20045;-61
2023/12/31 04:23:11;;;;;;;5.77;1.33;;;7.70;99.90;;;;;;5009933;28;20406;-61
2023/12/31 04:25:36;;;;;;;1.93;1.13;;;7.60;99.90;;;;;;5009676;28;20042;-61
2023/12/31 04:28:02;;;;;;;2.70;1.20;;;7.70;99.90;;;;;;5009760;28;20272;-62
2023/12/31 04:30:28;;;;;;;4.85;1.63;;;7.70;99.90;;;;;;5009750;28;20499;-61
2023/12/31 04:32:54;;;;;;;2.23;1.53;;;7.70;99.90;;;;;;5009304;28;20081;-61
2023/12/31 04:35:19;;;;;;;2.63;1.85;;;7.70;99.90;;;;;;4992864;28;20501;-60
2023/12/31 04:37:45;;;;;;;4.77;1.40;;;7.70;99.90;;;;;;5013417;28;20025;-61
2023/12/31 04:40:11;;;;;;;3.20;1.27;;;7.70;99.90;;;;;;5008513;28;20049;-61
2023/12/31 04:42:36;;;;;;;5.40;1.50;;;7.70;99.90;;;;;;5010974;28;20108;-60
2023/12/31 04:45:07;;;;;;;2.77;1.80;;;7.70;99.90;;;;;;5009259;28;20044;-61
2023/12/31 04:47:33;;;;;;;1.90;1.55;;;7.70;99.90;;;;;;5009229;28;20038;-60
2023/12/31 04:49:59;;;;;;;2.25;1.65;;;7.70;99.90;;;;;;5009049;28;20034;-61
2023/12/31 04:52:24;;;;;;;3.83;1.87;;;7.70;99.90;;;;;;5009307;28;20470;-61
2023/12/31 04:54:51;;;;;;;3.00;1.90;;;7.70;99.90;;;;;;5008059;28;20525;-60
2023/12/31 04:57:16;;;;;;;;;;;7.80;99.90;;;;;;5009613;28;20545;-61
2023/12/31 04:59:42;;;;;;;2.55;2.05;;;7.70;99.90;;;;;;5008928;28;19921;-62
2023/12/31 05:02:07;;;;;;;2.20;1.30;;;7.80;99.90;;;;;;5009056;28;20571;-60
2023/12/31 05:04:33;;;;;;;1.90;1.60;;;7.80;99.90;;;;;;5009288;28;20256;-61
2023/12/31 05:06:59;;;;;;;2.70;1.83;;;7.80;99.90;;;;;;5008945;28;20453;-62
2023/12/31 05:09:25;;;;;;;2.67;1.90;;;7.80;99.90;;;;;;5008942;28;20038;-61
2023/12/31 05:11:51;;;;;;;4.43;1.80;;;7.80;99.90;;;;;;5007287;28;20686;-60
2023/12/31 05:14:16;;;;;;;3.10;1.47;;;7.80;99.90;;;;;;5007571;28;20038;-61
2023/12/31 05:16:42;;;;;;;5.07;2.00;;;7.80;99.90;;;;;;5008804;28;20029;-61
2023/12/31 05:19:08;;;;;;;2.28;1.65;;;7.80;99.90;;;;;;5008016;28;20265;-61
2023/12/31 05:21:34;;;;;;;3.13;2.30;;;7.80;99.90;;;;;;5009219;28;20092;-61
2023/12/31 05:24:00;;;;;;;4.80;2.30;;;7.80;99.90;;;;;;5003597;28;20048;-60
2023/12/31 05:26:25;;;;;;;2.42;1.92;;;7.80;99.90;;;;;;5000608;28;20126;-61
2023/12/31 05:28:52;;;;;;;2.57;1.80;;;7.90;99.90;;;;;;5007365;28;20117;-61
2023/12/31 05:31:17;;;;;;;2.90;2.33;;;7.90;99.90;;;;;;5009468;28;20037;-61
2023/12/31 05:33:44;;;;;;;4.93;1.70;;;7.90;99.90;;;;;;5007928;28;20042;-61
2023/12/31 05:36:10;;;;;;;3.25;1.75;;;7.90;99.90;;;;;;5008935;28;20084;-61
2023/12/31 05:38:36;;;;;;;4.20;1.92;;;7.90;99.90;;;;;;5007871;28;20092;-61
2023/12/31 05:41:02;;;;;;;2.90;2.40;;;7.90;99.90;;;;;;5008187;28;20033;-62
2023/12/31 05:43:27;;;;;;;3.70;2.40;;;7.90;99.90;;;;;;5039862;28;20315;-61
2023/12/31 05:45:53;;;;;;;3.67;1.90;;;8.00;99.90;;;;;;5002952;28;20457;-62
2023/12/31 05:48:19;;;;;;;2.50;1.83;;;8.00;99.90;;;;;;5007494;28;20497;-61
2023/12/31 05:50:46;;;;;;;5.23;1.83;;;8.00;99.90;;;;;;5008526;28;20045;-61
2023/12/31 05:53:12;;;;;;;2.17;1.90;;;8.00;99.90;;;;;;5008195;28;20046;-60
2023/12/31 05:55:37;;;;;;;6.97;1.80;;;8.00;99.90;;;;;;5007668;28;20044;-62
2023/12/31 05:58:03;;;;;;;3.40;1.83;;;8.00;99.90;;;;;;5007992;28;20144;-62
2023/12/31 06:00:28;;;;;;;5.47;1.85;;;8.00;99.90;;;;;;5008414;28;20041;-61
2023/12/31 06:02:55;;;;;;;2.17;1.47;;;7.90;99.90;;;;;;5006541;28;20046;-62
2023/12/31 06:05:21;;;;;;;;;;;7.90;99.90;;;;;;5006359;28;20103;-61
2023/12/31 06:07:47;;;;;;;4.70;2.38;;;7.90;99.90;;;;;;5007209;28;20015;-61
2023/12/31 06:10:12;;;;;;;2.65;1.92;;;7.90;99.90;;;;;;5006649;28;20042;-64
2023/12/31 06:12:38;;;;;;;3.30;2.28;;;7.90;99.90;;;;;;5006691;28;20033;-62
2023/12/31 06:15:09;;;;;;;3.50;2.57;;;7.90;99.90;;;;;;5006966;28;20117;-62
2023/12/31 06:17:38;;;;;;;3.78;1.85;;;7.90;99.90;;;;;;5008385;28;20297;-61
2023/12/31 06:20:06;;;;;;;4.90;2.20;;;7.90;99.90;;;;;;5006742;28;20037;-62
2023/12/31 06:22:32;;;;;;;2.95;2.42;;;8.00;99.90;;;;;;5007559;28;20495;-64
2023/12/31 06:24:57;;;;;;;2.50;1.98;;;8.00;99.90;;;;;;5007612;28;20048;-61
2023/12/31 06:27:24;;;;;;;5.33;2.10;;;8.00;99.90;;;;;;5006638;28;20033;-62
2023/12/31 06:29:50;;;;;;;3.42;2.15;;;8.00;99.90;;;;;;5007131;28;20109;-62
2023/12/31 06:32:16;;;;;;;5.05;2.35;;;8.00;99.90;;;;;;5007918;28;20469;-62
2023/12/31 06:34:42;;;;;;;2.38;1.92;;;8.00;99.90;;;;;;5008237;28;20041;-62
2023/12/31 06:37:07;;;;;;;2.40;1.93;;;8.00;99.90;;;;;;5038203;28;20042;-61
2023/12/31 06:39:33;;;;;;;4.20;2.60;;;8.00;99.90;;;;;;5005573;28;20042;-62
2023/12/31 06:41:59;;;;;;;2.95;2.05;;;8.10;99.90;;;;;;5010451;28;20032;-62
2023/12/31 06:44:24;;;;;;;2.38;2.17;;;8.10;99.90;;;;;;5009790;28;20038;-62
2023/12/31 06:46:50;;;;;;;2.30;2.10;;;8.10;99.90;;;;;;5009059;28;20038;-60
2023/12/31 06:49:15;;;;;;;3.73;2.13;;;8.10;99.90;;;;;;5007872;28;20037;-62
2023/12/31 06:51:41;;;;;;;3.60;2.63;;;8.10;99.90;;;;;;5007582;28;20049;-61
2023/12/31 06:54:07;;;;;;;5.53;2.43;;;8.10;99.90;;;;;;5006417;28;20038;-60
2023/12/31 06:56:33;;;;;;;4.35;2.33;;;8.10;99.90;;;;;;5007567;28;20119;-62
2023/12/31 06:58:58;;;;;;;8.10;2.50;;;8.10;99.90;;;;;;5007086;28;20063;-61
2023/12/31 07:01:24;;;;;;;4.65;2.28;;;8.10;99.90;;;;;;5007575;28;20041;-61
2023/12/31 07:03:49;;;;;;;2.70;2.50;;;8.10;99.90;;;;;;5007237;28;20111;-62
2023/12/31 07:06:15;;;;;;;5.07;2.50;;;8.20;99.90;;;;;;5007518;28;20061;-61
2023/12/31 07:08:40;;;;;;;3.67;2.20;;;8.20;99.90;;;;;;5006333;28;20528;-61
2023/12/31 07:11:06;;;;;;;3.33;2.30;;;8.20;99.90;;;;;;5007365;28;20038;-61
2023/12/31 07:13:32;;;;;;;3.90;2.20;;;8.20;99.90;;;;;;5007052;28;20529;-62
2023/12/31 07:15:58;;;;;;;2.40;2.20;;;8.20;99.90;;;;;;5007600;28;20601;-61
2023/12/31 07:18:24;;;;;;;2.28;1.95;;;8.20;99.90;;;;;;5002683;28;20032;-62
2023/12/31 07:20:49;;;;;;;1.70;1.60;;;8.20;99.90;;;;;;5003984;28;20414;-62
2023/12/31 07:23:15;;;;;;;4.60;2.20;;;8.30;99.90;;;;;;5002555;28;20490;-62
2023/12/31 07:25:40;;;;;;;2.33;2.07;;;8.30;99.90;;;;;;5005876;28;20038;-61
2023/12/31 07:28:06;;;;;;;4.70;1.63;;;8.30;99.90;;;;;;5006531;28;20057;-61
2023/12/31 07:30:32;;;;;;;4.63;2.17;;;8.30;99.90;;;;;;5004564;28;20042;-61
2023/12/31 07:32:57;;;;;;;3.43;2.00;;;8.30;99.90;;;;;;5005912;28;20037;-62
2023/12/31 07:35:23;;;;;;;2.53;2.07;;;8.30;99.90;;;;;;5007514;28;20036;-62
2023/12/31 07:37:48;;;;;;;3.10;1.70;;;8.40;99.90;;;;;;5007362;28;20038;-61
2023/12/31 07:40:14;;;;;;;2.70;1.97;;;8.40;99.90;;;;;;5006264;28;20053;-62
2023/12/31 07:42:39;;;;;;;7.47;2.37;;;8.40;99.90;;;;;;5008851;28;20034;-62
2023/12/31 07:45:08;;;;;;;3.93;1.93;;;8.50;99.90;;;;;;5011395;28;20128;-61
2023/12/31 07:47:35;;;;;;;1.70;1.60;;;8.50;99.90;;;;;;5010550;28;20148;-61
2023/12/31 07:50:05;;;;;;;2.30;1.80;;;8.50;99.90;;;;;;5010022;28;20077;-61
2023/12/31 07:52:31;;;;;;;4.10;1.83;;;8.50;99.90;;;;;;5010988;28;20033;-60
2023/12/31 07:54:56;;;;;;;2.10;1.20;;;8.50;99.90;;;;;;5010652;28;20040;-62
2023/12/31 07:57:22;;;;;;;3.40;2.20;;;8.50;99.90;;;;;;5010636;28;20494;-62
2023/12/31 07:59:47;;;;;;;2.57;1.27;;;8.50;99.90;;;;;;5010118;28;20030;-61
2023/12/31 08:02:13;;;;;;;1.50;1.30;;;8.50;99.90;;;;;;5010279;28;20506;-61
2023/12/31 08:04:39;;;;;;;2.73;2.03;;;8.50;99.90;;;;;;5010951;28;20040;-61
2023/12/31 08:07:04;;;;;;;3.22;1.20;;;8.50;99.90;;;;;;5010411;28;20295;-61
2023/12/31 08:09:30;;;;;;;3.77;1.47;;;8.50;99.90;;;;;;4991650;28;20053;-62
2023/12/31 08:11:56;;;;;;;6.32;1.55;;;8.60;99.90;;;;;;5007152;28;20099;-61
2023/12/31 08:14:22;;;;;;;1.53;1.20;;;8.60;99.90;;;;;;5008608;28;20045;-60
2023/12/31 08:16:48;;;;;;;1.90;1.50;;;8.60;99.90;;;;;;5002157;28;20920;-60
2023/12/31 08:19:14;;;;;;;2.17;1.58;;;8.60;99.90;;;;;;5005454;28;20041;-60
2023/12/31 08:21:40;;;;;;;2.35;2.13;;;8.60;99.90;;;;;;5011279;28;20030;-61
2023/12/31 08:24:06;;;;;;;3.78;2.65;;;8.60;99.90;;;;;;5008398;28;20755;-61
2023/12/31 08:26:32;;;;;;;2.42;1.35;;;8.60;99.90;;;;;;5010049;28;20123;-61
2023/12/31 08:28:59;;;;;;;2.50;1.00;;;8.70;99.90;;;;;;5006319;28;20030;-62
2023/12/31 08:31:25;;;;;;;2.47;1.63;;;8.70;99.90;;;;;;5008953;28;20042;-62
2023/12/31 08:33:50;;;;;;;2.83;1.20;;;8.70;99.90;;;;;;5008390;28;20045;-61
2023/12/31 08:36:16;;;;;;;1.17;1.00;;;8.70;99.90;;;;;;5008502;28;20119;-61
2023/12/31 08:38:41;;;;;;;2.80;1.27;;;8.70;99.90;;;;;;5005062;28;20316;-61
2023/12/31 08:41:07;;;;;;;1.67;1.40;;;8.70;99.90;;;;;;5010448;28;20030;-61
2023/12/31 08:43:33;;;;;;;1.60;1.07;;;8.70;99.90;;;;;;5006759;28;20290;-62
2023/12/31 08:45:58;;;;;;;3.30;1.88;;;8.70;99.90;;;;;;5011674;28;20045;-61
2023/12/31 08:48:24;;;;;;;1.70;1.13;;;8.70;99.90;;;;;;5010013;28;20565;-61
2023/12/31 08:50:49;;;;;;;2.80;1.40;;;8.80;99.90;;;;;;5007155;28;20117;-62
2023/12/31 08:53:15;;;;;;;2.83;1.60;;;8.80;99.90;;;;;;5008322;28;20584;-62
2023/12/31 08:55:41;;;;;;;2.60;1.90;;;8.80;99.90;;;;;;5007495;28;20069;-61
2023/12/31 08:58:06;;;;;;;1.73;1.35;;;8.80;99.90;;;;;;5009621;28;20048;-61
2023/12/31 09:00:32;;;;;;;1.70;1.43;;;8.80;99.90;;;;;;5009397;28;20581;-61
2023/12/31 09:02:58;;;;;;;1.73;1.13;;;8.80;99.90;;;;;;5009421;28;20033;-62
2023/12/31 09:05:24;;;;;;;2.15;1.77;;;8.90;99.90;;;;;;5009125;28;20125;-62
2023/12/31 09:07:50;;;;;;;3.80;1.40;;;8.80;99.90;;;;;;5007585;28;20482;-61
2023/12/31 09:10:16;;;;;;;1.45;1.35;;;8.90;99.90;;;;;;5007886;28;20289;-62
2023/12/31 09:12:41;;;;;;;1.77;1.33;;;8.90;99.90;;;;;;5008884;28;20042;-62
2023/12/31 09:15:07;;;;;;;2.35;1.40;;;8.90;99.90;;;;;;5009065;28;20121;-62
2023/12/31 09:17:37;;;;;;;1.17;1.08;;;8.90;99.90;;;;;;5009288;28;20164;-62
2023/12/31 09:20:05;;;;;;;3.30;1.85;;;9.00;99.90;;;;;;5006992;28;20038;-62
2023/12/31 09:22:34;;;;;;;2.70;1.65;;;9.00;99.90;;;;;;5007621;28;20076;-62
2023/12/31 09:25:00;;;;;;;4.13;2.03;;;9.00;99.90;;;;;;5009021;28;20034;-62
2023/12/31 09:27:26;;;;;;;3.70;1.70;;;9.00;99.90;;;;;;5008708;28;20100;-61
2023/12/31 09:29:51;;;;;;;1.97;1.13;;;9.00;99.90;;;;;;5009065;28;20130;-62
2023/12/31 09:32:17;;;;;;;2.10;1.83;;;9.00;99.90;;;;;;5009885;28;20049;-62
2023/12/31 09:34:43;;;;;;;3.30;1.73;;;9.10;99.90;;;;;;5008051;28;20073;-62
2023/12/31 09:37:09;;;;;;;3.17;1.80;;;9.10;99.90;;;;;;5038382;28;20276;-62
2023/12/31 09:39:35;;;;;;;2.50;2.30;;;9.10;99.90;;;;;;5009060;28;20048;-61
2023/12/31 09:42:12;;;;;;;2.63;1.70;;;9.20;99.90;;;;;;5006223;28;20045;-62
2023/12/31 09:44:40;;;;;;;2.28;1.67;;;9.20;99.90;;;;;;5001358;28;20038;-60
2023/12/31 09:47:08;;;;;;;1.88;1.45;;;9.30;99.90;;;;;;5007976;28;20045;-62
2023/12/31 09:49:35;;;;;;;1.95;1.48;;;9.30;99.90;;;;;;5007767;28;20045;-62
2023/12/31 09:52:08;;;;;;;2.63;1.80;;;9.30;99.90;;;;;;5005995;28;20045;-62
2023/12/31 09:54:38;;;;;;;2.97;2.10;;;9.40;99.90;;;;;;5007798;28;20029;-62
2023/12/31 09:57:04;;;;;;;3.15;1.90;;;9.40;99.90;;;;;;5005676;28;20045;-61
2023/12/31 09:59:30;;;;;;;;;;;9.40;99.90;;;;;;5002617;28;20045;-62
2023/12/31 10:02:03;;;;;;;1.83;1.33;;;9.40;99.90;;;;;;5003695;28;19921;-61
2023/12/31 10:04:30;;;;;;;4.60;1.65;;;9.40;99.90;;;;;;5003105;28;20142;-61
2023/12/31 10:06:56;;;;;;;2.78;1.42;;;9.40;99.90;;;;;;5007156;28;20042;-62
2023/12/31 10:09:29;;;;;;;4.53;1.67;;;9.50;99.90;;;;;;5006004;28;20110;-62
2023/12/31 10:11:54;;;;;;;2.33;1.60;;;9.50;99.90;;;;;;5003718;28;20041;-64
2023/12/31 10:14:21;;;;;;;2.50;1.60;;;9.50;99.90;;;;;;5006982;28;20045;-63
2023/12/31 10:16:47;;;;;;;2.10;1.10;;;9.50;99.90;;;;;;5007114;28;20633;-65
2023/12/31 10:19:13;;;;;;;;;;;9.60;99.90;;;;;;5008137;28;20489;-64
2023/12/31 10:21:41;;;;;;;1.83;1.67;;;9.80;99.90;;;;;;5008459;28;19917;-64
2023/12/31 10:24:07;;;;;;;3.08;1.70;;;9.90;99.90;;;;;;5006168;28;20504;-64
2023/12/31 10:26:34;;;;;;;2.10;1.90;;;10.10;99.90;;;;;;5006663;28;20052;-63
2023/12/31 10:29:00;;;;;;;2.78;1.40;;;10.30;99.90;;;;;;5005429;28;20052;-63
2023/12/31 10:31:26;;;;;;;1.95;1.60;;;10.40;99.90;;;;;;5008110;28;20041;-62
2023/12/31 10:33:52;;;;;;;3.90;1.75;;;10.50;99.90;;;;;;5016903;28;20038;-64
2023/12/31 10:36:23;;;;;;;2.20;1.67;;;10.40;99.90;;;;;;5011432;28;20037;-64
2023/12/31 10:38:51;;;;;;;2.42;1.50;;;10.30;99.90;;;;;;5004755;28;20239;-64
2023/12/31 10:41:21;;;;;;;1.55;1.45;;;10.30;99.90;;;;;;5003880;28;20038;-64
2023/12/31 10:43:48;;;;;;;10.27;1.73;;;10.20;99.90;;;;;;5003556;28;20052;-63
2023/12/31 10:46:18;;;;;;;11.35;3.20;;;10.20;99.90;;;;;;5004776;28;20070;-64
2023/12/31 10:48:55;;;;;;;7.90;2.58;;;10.10;99.90;;;;;;5007443;28;20061;-64
2023/12/31 10:51:26;;;;;;;3.70;2.08;;;10.10;99.90;;;;;;5018705;28;20053;-64
2023/12/31 10:53:55;;;;;;;5.25;3.58;;;10.10;99.90;;;;;;5004556;28;20037;-65
2023/12/31 10:56:21;;;;;;;3.33;3.08;;;10.10;99.90;;;;;;5005410;28;20057;-63
2023/12/31 10:58:47;;;;;;;3.20;1.95;;;10.10;99.90;;;;;;5004568;28;20491;-63
2023/12/31 11:01:16;;;;;;;1.50;1.33;;;10.20;99.90;;;;;;5007102;28;20053;-65
2023/12/31 11:03:42;;;;;;;9.20;6.28;;;10.20;99.90;;;;;;5007238;28;20440;-63
2023/12/31 11:06:10;;;;;;;1.83;1.73;;;10.20;99.90;;;;;;5006720;28;20116;-62
2023/12/31 11:08:37;;;;;;;1.80;1.70;;;10.20;99.90;;;;;;5006888;28;20050;-63
2023/12/31 11:11:03;;;;;;;2.33;1.33;;;10.20;99.90;;;;;;4989624;28;20057;-62
2023/12/31 11:13:30;;;;;;;2.05;1.85;;;10.20;99.90;;;;;;5007474;28;20037;-62
2023/12/31 11:16:01;;;;;;;1.73;1.40;;;10.30;99.90;;;;;;4989920;28;20034;-63
2023/12/31 11:19:13;;;;;;;1.92;1.73;;;10.20;99.90;;;;;;5008749;28;20038;-62
2023/12/31 11:21:38;;;;;;;2.03;1.67;;;10.20;99.90;;;;;;4981716;28;20038;-62
2023/12/31 11:24:14;;;;;;;2.40;2.20;;;10.20;99.90;;;;;;5011031;28;20041;-62
2023/12/31 11:26:41;;;;;;;2.73;2.53;;;10.10;99.90;;;;;;5008066;28;20048;-62
2023/12/31 11:29:10;;;;;;;2.25;2.05;;;10.10;99.90;;;;;;5006882;28;20142;-62
2023/12/31 11:31:40;;;;;;;2.53;1.98;;;10.00;99.90;;;;;;5008583;28;20046;-62
2023/12/31 11:34:07;;;;;;;2.58;2.15;;;10.00;99.90;;;;;;5007345;28;20380;-63
2023/12/31 11:36:32;;;;;;;2.90;1.60;;;9.90;99.90;;;;;;5009195;28;20100;-62
2023/12/31 11:39:01;;;;;;;2.43;1.50;;;10.00;99.90;;;;;;5009302;28;20042;-62
2023/12/31 11:41:50;;;;;;;2.78;1.40;;;10.00;99.90;;;;;;5008775;28;20280;-62
2023/12/31 11:44:38;;;;;;;2.78;1.55;;;10.00;99.90;;;;;;5002228;28;20196;-62
2023/12/31 11:47:20;;;;;;;1.45;1.30;;;10.00;99.90;;;;;;5010460;28;20042;-62
2023/12/31 11:49:49;;;;;;;3.85;1.40;;;10.00;99.90;;;;;;5008064;28;20049;-62
2023/12/31 11:52:15;;;;;;;2.20;1.48;;;10.00;99.90;;;;;;5010478;28;20502;-61
2023/12/31 11:54:43;;;;;;;2.73;1.53;;;10.00;99.90;;;;;;5036440;28;20052;-62
2023/12/31 11:57:10;;;;;;;4.07;1.30;;;10.00;99.90;;;;;;5011566;28;20101;-63
2023/12/31 11:59:39;;;;;;;3.10;1.10;;;10.00;99.90;;;;;;5011798;28;20122;-62
2023/12/31 12:02:06;;;;;;;4.40;1.73;;;10.00;99.90;;;;;;5007384;28;20077;-63
2023/12/31 12:04:33;;;;;;;3.28;1.55;;;10.00;99.90;;;;;;5012014;28;20087;-62
2023/12/31 12:06:59;;;;;;;1.88;1.38;;;10.00;99.90;;;;;;5008618;28;20088;-63
2023/12/31 12:09:29;;;;;;;1.63;1.23;;;10.00;99.90;;;;;;5010193;28;20069;-62
2023/12/31 12:12:05;;;;;;;2.30;1.23;;;10.00;99.90;;;;;;5007853;28;20125;-63
2023/12/31 12:14:31;;;;;;;2.53;1.00;;;10.00;99.90;;;;;;5004319;28;20514;-62
2023/12/31 12:16:58;;;;;;;1.63;1.15;;;10.10;99.90;;;;;;5009955;28;20049;-62
2023/12/31 12:19:25;;;;;;;1.35;0.70;;;10.10;99.90;;;;;;5009844;28;20037;-62
2023/12/31 12:21:51;;;;;;;1.55;0.75;;;10.10;99.90;;;;;;5007380;28;20502;-62
2023/12/31 12:24:17;;;;;;;1.63;0.98;;;10.10;99.90;;;;;;5007678;28;20100;-62
2023/12/31 12:26:48;;;;;;;1.80;0.60;;;10.10;99.90;;;;;;5006947;28;20038;-62
2023/12/31 12:29:16;;;;;;;1.40;0.63;;;10.20;99.90;;;;;;5008121;28;20038;-62
2023/12/31 12:31:46;;;;;;;1.33;0.40;;;10.20;99.90;;;;;;5008010;28;20526;-61
2023/12/31 12:34:15;;;;;;;1.15;0.70;;;10.40;99.90;;;;;;5006066;28;20050;-61
2023/12/31 12:36:42;;;;;;;1.35;0.80;;;10.40;99.90;;;;;;5021655;28;20433;-61
2023/12/31 12:39:20;;;;;;;5.07;0.85;;;10.40;99.90;;;;;;5008913;28;20046;-60
2023/12/31 12:41:48;;;;;;;0.88;0.60;;;10.30;99.90;;;;;;5007084;28;20347;-62
2023/12/31 12:44:15;;;;;;;2.80;0.68;;;10.30;99.90;;;;;;5007435;28;20192;-62
2023/12/31 12:46:42;;;;;;;1.25;0.60;;;10.20;99.90;;;;;;5009384;28;20063;-62
2023/12/31 12:49:08;;;;;;;1.45;0.57;;;10.10;99.90;;;;;;5008983;28;20046;-63
2023/12/31 12:51:35;;;;;;;0.98;0.40;;;10.10;99.90;;;;;;5008769;28;20025;-61